createdAt,value
2023-04-29T00:00:30.297Z,10.30
2023-04-29T00:02:59.176Z,11.03
2023-04-29T00:05:28.386Z,8.20
2023-04-29T00:07:58.074Z,6.63
2023-04-29T00:10:26.963Z,5.90
2023-04-29T00:12:55.769Z,6.77
2023-04-29T00:15:25.831Z,7.43
2023-04-29T00:17:54.696Z,8.83
2023-04-29T00:20:24.190Z,9.47
2023-04-29T00:22:52.859Z,9.03
2023-04-29T00:25:21.513Z,5.60
2023-04-29T00:27:50.328Z,7.00
2023-04-29T00:30:19.206Z,8.93
2023-04-29T00:32:49.882Z,6.00
2023-04-29T00:35:19.077Z,8.00
2023-04-29T00:37:47.888Z,6.87
2023-04-29T00:40:17.549Z,6.93
2023-04-29T00:42:46.322Z,6.93
2023-04-29T00:45:15.044Z,9.27
2023-04-29T00:47:43.742Z,6.50
2023-04-29T00:50:14.132Z,5.70
2023-04-29T00:52:44.595Z,6.27
2023-04-29T00:55:14.549Z,7.50
2023-04-29T00:57:43.273Z,5.60
2023-04-29T01:00:14.001Z,6.33
2023-04-29T01:02:42.986Z,7.30
2023-04-29T01:05:13.361Z,6.73
2023-04-29T01:07:58.579Z,5.20
2023-04-29T01:10:33.781Z,5.73
2023-04-29T01:13:15.582Z,6.07
2023-04-29T01:16:00.105Z,6.23
2023-04-29T01:18:35.772Z,6.10
2023-04-29T01:21:06.712Z,6.23
2023-04-29T01:23:38.272Z,6.70
2023-04-29T01:26:08.329Z,8.23
2023-04-29T01:29:11.112Z,7.80
2023-04-29T01:31:52.540Z,7.97
2023-04-29T01:34:32.490Z,7.70
2023-04-29T01:37:11.620Z,11.70
2023-04-29T01:39:59.667Z,9.17
2023-04-29T01:42:40.484Z,8.03
2023-04-29T01:45:18.584Z,8.90
2023-04-29T01:47:49.026Z,11.30
2023-04-29T01:50:18.408Z,12.30
2023-04-29T01:52:47.084Z,13.37
2023-04-29T01:55:17.399Z,12.67
2023-04-29T01:58:08.732Z,20.50
2023-04-29T02:00:52.647Z,18.43
2023-04-29T02:03:21.620Z,51.57
2023-04-29T02:05:54.116Z,29.37
2023-04-29T02:08:23.321Z,53.17
2023-04-29T02:11:00.549Z,51.20
2023-04-29T02:13:59.564Z,33.47
2023-04-29T02:16:29.493Z,56.27
2023-04-29T02:19:04.814Z,74.17
2023-04-29T02:21:35.274Z,62.73
2023-04-29T02:24:04.471Z,35.10
2023-04-29T02:26:35.559Z,69.00
2023-04-29T02:29:04.207Z,48.03
2023-04-29T02:31:33.373Z,54.30
2023-04-29T02:34:02.167Z,33.43
2023-04-29T02:36:31.660Z,38.53
2023-04-29T02:39:01.745Z,70.27
2023-04-29T02:41:30.599Z,56.33
2023-04-29T02:44:00.880Z,47.23
2023-04-29T02:46:29.585Z,41.73
2023-04-29T02:48:58.487Z,40.63
2023-04-29T02:51:27.965Z,38.50
2023-04-29T02:53:56.663Z,81.93
2023-04-29T02:56:25.357Z,57.40
2023-04-29T02:58:54.043Z,92.87
2023-04-29T03:01:24.406Z,21.90
2023-04-29T03:03:54.252Z,35.40
2023-04-29T03:06:23.064Z,42.63
2023-04-29T03:08:53.886Z,20.53
2023-04-29T03:11:24.882Z,32.67
2023-04-29T03:13:54.247Z,120.47
2023-04-29T03:16:25.570Z,21.27
2023-04-29T03:18:54.575Z,16.23
2023-04-29T03:21:23.366Z,23.47
2023-04-29T03:23:52.123Z,12.77
2023-04-29T03:26:26.838Z,14.57
2023-04-29T03:28:55.652Z,11.37
2023-04-29T03:31:27.554Z,27.73
2023-04-29T03:33:56.828Z,15.83
2023-04-29T03:36:26.629Z,15.80
2023-04-29T03:39:05.408Z,26.70
2023-04-29T03:41:34.765Z,10.80
2023-04-29T03:44:04.194Z,15.30
2023-04-29T03:46:34.482Z,36.57
2023-04-29T03:49:04.141Z,17.20
2023-04-29T03:51:33.069Z,13.77
2023-04-29T03:54:10.906Z,9.93
2023-04-29T03:56:40.015Z,10.33
2023-04-29T03:59:08.945Z,19.97
2023-04-29T04:01:40.662Z,16.87
2023-04-29T04:04:09.603Z,31.83
2023-04-29T04:06:44.086Z,8.53
2023-04-29T04:09:14.293Z,6.80
2023-04-29T04:11:43.607Z,8.93
2023-04-29T04:14:12.713Z,9.20
2023-04-29T04:16:44.081Z,11.97
2023-04-29T04:19:14.301Z,6.20
2023-04-29T04:21:46.380Z,6.17
2023-04-29T04:24:16.153Z,8.57
2023-04-29T04:26:45.710Z,10.00
2023-04-29T04:29:29.746Z,8.83
2023-04-29T04:32:09.147Z,8.13
2023-04-29T04:34:46.796Z,8.67
2023-04-29T04:37:16.673Z,9.43
2023-04-29T04:39:51.505Z,7.87
2023-04-29T04:42:20.757Z,8.00
2023-04-29T04:44:51.573Z,10.17
2023-04-29T04:47:32.718Z,10.33
2023-04-29T04:50:10.329Z,8.80
2023-04-29T04:52:40.042Z,6.63
2023-04-29T04:55:22.511Z,6.97
2023-04-29T04:57:53.102Z,9.23
2023-04-29T05:00:22.253Z,11.80
2023-04-29T05:02:52.748Z,7.70
2023-04-29T05:05:21.666Z,10.13
2023-04-29T05:07:50.497Z,30.20
2023-04-29T05:10:26.593Z,14.43
2023-04-29T05:13:02.025Z,33.80
2023-04-29T05:15:31.560Z,13.80
2023-04-29T05:18:05.662Z,18.97
2023-04-29T05:20:38.794Z,14.53
2023-04-29T05:23:07.766Z,14.30
2023-04-29T05:25:42.872Z,16.47
2023-04-29T05:28:14.471Z,16.07
2023-04-29T05:33:48.401Z,22.10
2023-04-29T05:36:17.476Z,208.50
2023-04-29T05:38:46.451Z,105.20
2023-04-29T05:41:36.290Z,182.50
2023-04-29T05:44:15.568Z,100.40
2023-04-29T05:46:44.834Z,62.10
2023-04-29T05:49:16.076Z,56.17
2023-04-29T05:51:44.847Z,53.40
2023-04-29T05:54:14.631Z,54.10
2023-04-29T05:56:43.874Z,68.20
2023-04-29T05:59:12.745Z,80.53
2023-04-29T06:01:44.652Z,62.63
2023-04-29T06:04:15.670Z,44.63
2023-04-29T06:07:02.666Z,49.40
2023-04-29T06:09:58.792Z,40.67
2023-04-29T06:12:29.389Z,34.63
2023-04-29T06:14:59.841Z,35.27
2023-04-29T06:17:32.900Z,33.47
2023-04-29T06:20:03.735Z,33.80
2023-04-29T06:22:38.705Z,36.13
2023-04-29T06:25:08.485Z,36.00
2023-04-29T06:27:47.297Z,30.13
2023-04-29T06:30:17.641Z,31.20
2023-04-29T06:32:47.261Z,32.87
2023-04-29T06:35:24.886Z,29.70
2023-04-29T06:38:29.271Z,28.80
2023-04-29T06:41:08.156Z,31.37
2023-04-29T06:43:55.249Z,25.73
2023-04-29T06:46:40.434Z,29.50
2023-04-29T06:49:15.387Z,37.30
2023-04-29T06:51:45.532Z,29.37
2023-04-29T06:54:15.129Z,31.33
2023-04-29T06:56:43.826Z,33.87
2023-04-29T06:59:12.696Z,35.27
2023-04-29T07:01:44.301Z,32.53
2023-04-29T07:04:14.007Z,29.90
2023-04-29T07:06:47.058Z,29.10
2023-04-29T07:09:16.059Z,26.87
2023-04-29T07:11:45.419Z,22.20
2023-04-29T07:14:14.266Z,26.10
2023-04-29T07:16:43.276Z,21.47
2023-04-29T07:19:12.737Z,24.53
2023-04-29T07:21:42.236Z,21.00
2023-04-29T07:24:12.391Z,20.20
2023-04-29T07:26:41.761Z,21.87
2023-04-29T07:29:10.963Z,19.33
2023-04-29T07:31:39.744Z,14.27
2023-04-29T07:34:08.438Z,10.47
2023-04-29T07:36:37.320Z,9.40
2023-04-29T07:39:06.212Z,13.03
2023-04-29T07:41:36.654Z,9.73
2023-04-29T07:44:08.132Z,11.97
2023-04-29T07:46:37.940Z,10.87
2023-04-29T07:49:06.963Z,8.93
2023-04-29T07:51:35.699Z,11.63
2023-04-29T07:54:04.795Z,14.47
2023-04-29T07:56:35.248Z,14.10
2023-04-29T07:59:04.161Z,13.10
2023-04-29T08:01:33.131Z,15.13
2023-04-29T08:04:02.923Z,13.73
2023-04-29T08:06:35.913Z,14.33
2023-04-29T08:09:05.193Z,14.37
2023-04-29T08:11:36.871Z,13.07
2023-04-29T08:14:06.592Z,17.97
2023-04-29T08:16:35.958Z,15.77
2023-04-29T08:19:04.871Z,18.83
2023-04-29T08:21:34.827Z,20.10
2023-04-29T08:24:03.778Z,17.87
2023-04-29T08:26:32.664Z,18.03
2023-04-29T08:29:03.090Z,19.47
2023-04-29T08:31:32.369Z,17.50
2023-04-29T08:34:03.096Z,17.67
2023-04-29T08:36:32.673Z,17.70
2023-04-29T08:39:03.934Z,16.83
2023-04-29T08:41:34.455Z,15.37
2023-04-29T08:44:04.797Z,14.77
2023-04-29T08:46:35.283Z,17.40
2023-04-29T08:49:05.925Z,17.83
2023-04-29T08:51:35.797Z,15.67
2023-04-29T08:54:07.692Z,16.63
2023-04-29T08:56:40.962Z,14.37
2023-04-29T08:59:20.488Z,13.23
2023-04-29T09:01:54.973Z,14.90
2023-04-29T09:04:39.207Z,14.77
2023-04-29T09:07:12.630Z,13.83
2023-04-29T09:10:26.054Z,13.60
2023-04-29T09:13:02.983Z,14.87
2023-04-29T09:15:41.778Z,13.30
2023-04-29T09:18:10.750Z,14.43
2023-04-29T09:20:39.755Z,12.67
2023-04-29T09:23:08.815Z,13.40
2023-04-29T09:25:37.902Z,15.03
2023-04-29T09:28:18.055Z,15.33
2023-04-29T09:30:51.866Z,11.53
2023-04-29T09:33:20.818Z,11.43
2023-04-29T09:35:52.090Z,9.73
2023-04-29T09:38:24.767Z,13.90
2023-04-29T09:40:59.678Z,11.90
2023-04-29T09:43:35.333Z,14.87
2023-04-29T09:46:23.196Z,13.37
2023-04-29T09:48:52.349Z,18.83
2023-04-29T09:51:21.211Z,18.03
2023-04-29T09:53:50.072Z,20.03
2023-04-29T09:56:19.137Z,16.43
2023-04-29T09:58:48.131Z,14.53
2023-04-29T10:01:20.978Z,13.27
2023-04-29T10:03:51.393Z,13.30
2023-04-29T10:06:20.444Z,14.70
2023-04-29T10:08:50.944Z,14.53
2023-04-29T10:11:20.222Z,14.87
2023-04-29T10:13:52.874Z,15.93
2023-04-29T10:16:31.328Z,14.90
2023-04-29T10:19:08.782Z,17.20
2023-04-29T10:21:38.238Z,15.43
2023-04-29T10:24:10.931Z,16.63
2023-04-29T10:26:43.320Z,16.73
2023-04-29T10:31:57.261Z,16.73
2023-04-29T10:34:27.709Z,17.97
2023-04-29T10:36:56.617Z,15.83
2023-04-29T10:39:45.329Z,19.30
2023-04-29T10:42:30.213Z,15.80
2023-04-29T10:45:27.211Z,15.47
2023-04-29T10:48:18.979Z,15.40
2023-04-29T10:51:12.374Z,20.07
2023-04-29T10:54:03.983Z,18.57
2023-04-29T10:58:07.547Z,15.13
2023-04-29T11:00:39.095Z,17.37
2023-04-29T11:03:08.295Z,15.77
2023-04-29T11:05:39.046Z,16.50
2023-04-29T11:08:16.623Z,16.30
2023-04-29T11:10:51.286Z,18.40
2023-04-29T11:13:25.829Z,15.97
2023-04-29T11:15:55.983Z,16.53
2023-04-29T11:18:26.258Z,18.67
2023-04-29T11:21:16.005Z,17.53
2023-04-29T11:23:45.684Z,14.53
2023-04-29T11:26:14.626Z,13.87
2023-04-29T11:28:45.164Z,13.10
2023-04-29T11:31:14.117Z,14.50
2023-04-29T11:33:42.855Z,13.20
2023-04-29T11:36:13.277Z,21.37
2023-04-29T11:38:43.650Z,17.83
2023-04-29T11:41:14.682Z,12.50
2023-04-29T11:43:44.136Z,13.73
2023-04-29T11:46:15.226Z,12.43
2023-04-29T11:48:50.983Z,14.90
2023-04-29T11:51:21.030Z,12.40
2023-04-29T11:53:53.091Z,10.60
2023-04-29T11:56:25.683Z,11.20
2023-04-29T11:59:01.375Z,10.87
2023-04-29T12:01:31.548Z,10.27
2023-04-29T12:04:01.083Z,10.40
2023-04-29T12:06:31.789Z,10.13
2023-04-29T12:09:04.569Z,12.23
2023-04-29T12:11:33.337Z,10.90
2023-04-29T12:14:06.165Z,11.90
2023-04-29T12:16:36.332Z,13.90
2023-04-29T12:19:05.517Z,13.00
2023-04-29T12:21:36.768Z,14.13
2023-04-29T12:24:08.261Z,13.40
2023-04-29T12:26:41.521Z,14.13
2023-04-29T12:29:12.377Z,14.57
2023-04-29T12:31:41.863Z,14.07
2023-04-29T12:34:10.713Z,14.10
2023-04-29T12:36:39.350Z,12.27
2023-04-29T12:39:11.834Z,11.77
2023-04-29T12:41:43.342Z,15.17
2023-04-29T12:44:12.460Z,10.17
2023-04-29T12:46:43.028Z,10.80
2023-04-29T12:49:13.004Z,8.80
2023-04-29T12:51:42.216Z,10.77
2023-04-29T12:54:12.491Z,13.07
2023-04-29T12:56:41.817Z,13.17
2023-04-29T12:59:13.517Z,14.90
2023-04-29T13:01:42.265Z,14.30
2023-04-29T13:04:12.182Z,14.77
2023-04-29T13:06:41.898Z,15.47
2023-04-29T13:09:17.927Z,16.97
2023-04-29T13:11:48.004Z,14.90
2023-04-29T13:14:16.881Z,14.93
2023-04-29T13:16:46.252Z,17.83
2023-04-29T13:19:30.468Z,18.10
2023-04-29T13:22:04.787Z,19.53
2023-04-29T13:24:36.795Z,19.67
2023-04-29T13:27:05.985Z,21.67
2023-04-29T13:29:35.721Z,24.13
2023-04-29T13:32:05.119Z,22.40
2023-04-29T13:34:33.976Z,22.60
2023-04-29T13:37:02.865Z,24.17
2023-04-29T13:39:31.976Z,32.50
2023-04-29T13:42:02.156Z,22.63
2023-04-29T13:44:42.361Z,24.80
2023-04-29T13:47:25.145Z,25.00
2023-04-29T13:50:22.749Z,25.73
2023-04-29T13:56:03.669Z,31.40
2023-04-29T14:03:15.007Z,26.80
2023-04-29T14:05:44.560Z,26.97
2023-04-29T14:08:14.164Z,25.00
2023-04-29T14:10:42.830Z,22.23
2023-04-29T14:13:13.117Z,25.93
2023-04-29T14:15:42.300Z,22.73
2023-04-29T14:18:12.153Z,23.20
2023-04-29T14:20:41.168Z,24.37
2023-04-29T14:23:12.158Z,23.17
2023-04-29T14:25:41.172Z,23.20
2023-04-29T14:28:09.845Z,24.80
2023-04-29T14:30:41.183Z,25.03
2023-04-29T14:33:11.672Z,22.20
2023-04-29T14:35:41.219Z,20.60
2023-04-29T14:38:09.899Z,25.20
2023-04-29T14:40:39.225Z,23.80
2023-04-29T14:43:08.000Z,24.20
2023-04-29T14:45:37.708Z,24.53
2023-04-29T14:48:08.034Z,22.10
2023-04-29T14:50:37.052Z,22.87
2023-04-29T14:53:15.352Z,21.60
2023-04-29T14:55:44.451Z,25.63
2023-04-29T14:58:13.178Z,23.63
2023-04-29T15:00:41.876Z,22.57
2023-04-29T15:03:21.545Z,22.63
2023-04-29T15:06:13.122Z,22.67
2023-04-29T15:08:42.072Z,22.67
2023-04-29T15:11:10.708Z,22.83
2023-04-29T15:13:39.692Z,21.40
2023-04-29T15:16:09.078Z,21.70
2023-04-29T15:18:40.834Z,23.10
2023-04-29T15:21:11.444Z,22.23
2023-04-29T15:23:40.987Z,20.40
2023-04-29T15:26:10.603Z,21.07
2023-04-29T15:28:39.750Z,25.13
2023-04-29T15:31:08.431Z,28.87
2023-04-29T15:33:38.731Z,19.07
2023-04-29T15:36:09.289Z,19.80
2023-04-29T15:38:38.257Z,18.77
2023-04-29T15:41:07.153Z,19.03
2023-04-29T15:43:35.905Z,19.50
2023-04-29T15:46:04.974Z,23.17
2023-04-29T15:48:33.769Z,19.30
2023-04-29T15:51:04.037Z,20.20
2023-04-29T15:53:32.959Z,19.03
2023-04-29T15:56:01.746Z,20.00
2023-04-29T15:58:30.679Z,20.30
2023-04-29T16:00:59.387Z,23.97
2023-04-29T16:03:29.477Z,21.17
2023-04-29T16:05:58.471Z,21.87
2023-04-29T16:08:28.617Z,22.00
2023-04-29T16:10:57.274Z,19.10
2023-04-29T16:13:26.165Z,20.43
2023-04-29T16:15:56.710Z,22.37
2023-04-29T16:18:25.733Z,18.43
2023-04-29T16:20:54.538Z,20.27
2023-04-29T16:23:23.236Z,19.67
2023-04-29T16:25:54.551Z,21.50
2023-04-29T16:28:24.307Z,19.33
2023-04-29T16:30:53.437Z,17.60
2023-04-29T16:33:22.069Z,22.77
2023-04-29T16:35:51.429Z,22.43
2023-04-29T16:38:20.174Z,21.10
2023-04-29T16:40:50.657Z,21.37
2023-04-29T16:43:21.244Z,20.73
2023-04-29T16:45:51.334Z,22.93
2023-04-29T16:48:20.525Z,21.77
2023-04-29T16:50:50.830Z,17.57
2023-04-29T16:53:19.730Z,18.77
2023-04-29T16:55:48.517Z,17.37
2023-04-29T16:58:17.692Z,18.00
2023-04-29T17:00:48.598Z,26.23
2023-04-29T17:03:17.568Z,20.70
2023-04-29T17:05:46.457Z,19.33
2023-04-29T17:08:15.510Z,19.53
2023-04-29T17:10:44.919Z,18.47
2023-04-29T17:13:13.692Z,18.57
2023-04-29T17:15:42.437Z,17.20
2023-04-29T17:18:12.831Z,17.50
2023-04-29T17:20:42.307Z,21.40
2023-04-29T17:23:10.950Z,16.43
2023-04-29T17:25:39.763Z,15.70
2023-04-29T17:28:08.952Z,17.13
2023-04-29T17:30:37.904Z,19.87
2023-04-29T17:33:06.747Z,18.47
2023-04-29T17:35:37.432Z,17.00
2023-04-29T17:38:08.490Z,17.47
2023-04-29T17:40:37.765Z,17.43
2023-04-29T17:43:06.603Z,19.00
2023-04-29T17:45:36.061Z,17.63
2023-04-29T17:48:06.878Z,17.57
2023-04-29T17:50:45.512Z,19.17
2023-04-29T17:53:16.971Z,21.50
2023-04-29T17:55:46.395Z,20.57
2023-04-29T17:58:15.705Z,19.47
2023-04-29T18:00:46.626Z,19.40
2023-04-29T18:03:15.975Z,17.27
2023-04-29T18:05:47.654Z,16.83
2023-04-29T18:08:16.688Z,17.73
2023-04-29T18:10:45.681Z,14.87
2023-04-29T18:13:14.993Z,20.90
2023-04-29T18:15:44.691Z,19.00
2023-04-29T18:18:13.620Z,19.40
2023-04-29T18:20:46.201Z,18.07
2023-04-29T18:23:15.177Z,17.53
2023-04-29T18:25:44.516Z,18.87
2023-04-29T18:28:23.553Z,16.53
2023-04-29T18:30:53.733Z,19.07
2023-04-29T18:33:23.362Z,18.13
2023-04-29T18:35:54.424Z,18.20
2023-04-29T18:38:23.221Z,14.83
2023-04-29T18:40:52.425Z,17.17
2023-04-29T18:43:24.821Z,17.23
2023-04-29T18:45:54.507Z,17.00
2023-04-29T18:48:23.912Z,16.60
2023-04-29T18:50:54.923Z,16.40
2023-04-29T18:53:24.110Z,17.57
2023-04-29T18:55:53.514Z,18.83
2023-04-29T18:58:28.936Z,17.93
2023-04-29T19:01:00.108Z,17.93
2023-04-29T19:03:31.725Z,16.07
2023-04-29T19:06:05.351Z,14.90
2023-04-29T19:08:34.637Z,16.83
2023-04-29T19:11:04.491Z,15.80
2023-04-29T19:13:33.535Z,19.23
2023-04-29T19:16:02.557Z,16.83
2023-04-29T19:18:31.522Z,16.17
2023-04-29T19:21:08.396Z,18.70
2023-04-29T19:23:47.806Z,17.93
2023-04-29T19:26:16.874Z,18.30
2023-04-29T19:28:47.500Z,18.80
2023-04-29T19:31:18.932Z,21.50
2023-04-29T19:33:48.399Z,17.17
2023-04-29T19:36:20.992Z,21.13
2023-04-29T19:38:50.174Z,16.67
2023-04-29T19:41:20.983Z,20.27
2023-04-29T19:43:49.847Z,20.00
2023-04-29T19:46:18.808Z,20.00
2023-04-29T19:48:47.980Z,21.57
2023-04-29T19:51:16.833Z,22.13
2023-04-29T19:53:47.128Z,18.77
2023-04-29T19:56:17.312Z,19.67
2023-04-29T19:58:46.498Z,25.63
2023-04-29T20:01:15.827Z,20.73
2023-04-29T20:03:44.824Z,26.63
2023-04-29T20:06:13.794Z,22.57
2023-04-29T20:08:42.569Z,20.27
2023-04-29T20:11:13.631Z,20.03
2023-04-29T20:13:42.507Z,17.73
2023-04-29T20:16:11.681Z,22.40
2023-04-29T20:18:41.045Z,17.53
2023-04-29T20:21:09.832Z,16.03
2023-04-29T20:23:40.254Z,18.23
2023-04-29T20:26:09.014Z,17.33
2023-04-29T20:28:40.075Z,19.00
2023-04-29T20:31:09.134Z,19.60
2023-04-29T20:33:37.940Z,17.67
2023-04-29T20:36:08.014Z,19.93
2023-04-29T20:38:37.002Z,18.37
2023-04-29T20:41:06.799Z,18.50
2023-04-29T20:43:35.868Z,19.33
2023-04-29T20:46:06.019Z,16.80
2023-04-29T20:48:35.014Z,20.43
2023-04-29T20:51:03.707Z,19.57
2023-04-29T20:53:32.509Z,21.17
2023-04-29T20:56:01.202Z,18.27
2023-04-29T20:58:30.403Z,16.83
2023-04-29T21:00:59.391Z,15.67
2023-04-29T21:03:29.802Z,21.53
2023-04-29T21:05:58.619Z,17.63
2023-04-29T21:08:27.656Z,17.80
2023-04-29T21:10:56.368Z,18.50
2023-04-29T21:13:25.199Z,18.53
2023-04-29T21:15:53.990Z,17.83
2023-04-29T21:18:22.919Z,19.50
2023-04-29T21:20:53.071Z,18.87
2023-04-29T21:23:22.777Z,16.93
2023-04-29T21:25:51.593Z,16.33
2023-04-29T21:28:20.491Z,18.83
2023-04-29T21:30:49.128Z,21.27
2023-04-29T21:33:18.021Z,16.50
2023-04-29T21:35:50.221Z,19.77
2023-04-29T21:38:20.811Z,19.07
2023-04-29T21:40:50.244Z,19.40
2023-04-29T21:43:20.388Z,19.00
2023-04-29T21:45:50.206Z,17.13
2023-04-29T21:48:20.295Z,18.37
2023-04-29T21:50:49.663Z,17.47
2023-04-29T21:53:20.005Z,18.23
2023-04-29T21:55:48.840Z,18.47
2023-04-29T21:58:18.390Z,18.40
2023-04-29T22:00:58.109Z,17.83
2023-04-29T22:03:27.012Z,19.60
2023-04-29T22:05:56.096Z,16.87
2023-04-29T22:08:26.370Z,18.97
2023-04-29T22:10:55.411Z,23.73
2023-04-29T22:13:24.122Z,17.17
2023-04-29T22:15:53.302Z,20.20
2023-04-29T22:18:22.164Z,19.13
2023-04-29T22:20:51.624Z,18.87
2023-04-29T22:23:22.681Z,19.90
2023-04-29T22:25:52.980Z,19.20
2023-04-29T22:28:21.729Z,21.90
2023-04-29T22:30:50.472Z,19.57
2023-04-29T22:33:19.165Z,23.60
2023-04-29T22:35:48.036Z,20.20
2023-04-29T22:38:16.834Z,19.03
2023-04-29T22:40:52.649Z,21.40
2023-04-29T22:43:21.548Z,20.50
2023-04-29T22:45:54.437Z,18.07
2023-04-29T22:48:26.667Z,21.70
2023-04-29T22:50:57.557Z,20.97
2023-04-29T22:53:26.834Z,20.27
2023-04-29T22:55:59.020Z,20.77
2023-04-29T22:58:28.876Z,21.20
2023-04-29T23:00:59.005Z,19.83
2023-04-29T23:03:28.600Z,21.43
2023-04-29T23:05:59.785Z,21.83
2023-04-29T23:08:29.240Z,20.77
2023-04-29T23:10:59.439Z,19.43
2023-04-29T23:13:28.348Z,20.57
2023-04-29T23:15:58.401Z,18.93
2023-04-29T23:18:27.215Z,17.90
2023-04-29T23:20:57.283Z,21.67
2023-04-29T23:23:25.990Z,19.73
2023-04-29T23:25:54.648Z,20.43
2023-04-29T23:28:25.609Z,19.47
2023-04-29T23:30:54.638Z,22.47
2023-04-29T23:33:23.385Z,20.93
2023-04-29T23:35:52.941Z,20.93
2023-04-29T23:38:21.818Z,21.73
2023-04-29T23:40:50.561Z,18.40
2023-04-29T23:43:20.429Z,20.67
2023-04-29T23:45:51.288Z,18.13
2023-04-29T23:48:20.009Z,20.83
2023-04-29T23:50:48.700Z,20.63
2023-04-29T23:53:17.363Z,21.43
2023-04-29T23:55:46.093Z,18.50
2023-04-29T23:58:14.841Z,20.47
